Time;durP1;ratioP1;P1;durP2;ratioP2;P2;SDS_P1;SDS_P2;PMS_P1;PMS_P2;Temp;Humidity;BMP_temperature;BMP_pressure;BME280_temperature;BME280_humidity;BME280_pressure;Samples;Min_cycle;Max_cycle;Signal;HPM_P1;HPM_P2
2022/01/17 00:02:21;;;;;;;384.67;174.07;;;2.10;99.90;;;;;;5053526;28;20475;-57
2022/01/17 00:04:48;;;;;;;367.92;164.20;;;2.00;99.90;;;;;;5053484;28;20486;-49
2022/01/17 00:07:14;;;;;;;382.45;165.23;;;2.10;99.90;;;;;;5053803;28;20024;-69
2022/01/17 00:09:40;;;;;;;362.13;161.35;;;2.30;99.90;;;;;;5053689;28;20017;-51
2022/01/17 00:12:06;;;;;;;417.60;188.32;;;2.30;99.90;;;;;;5053615;28;20110;-56
2022/01/17 00:14:39;;;;;;;333.77;152.13;;;2.40;99.90;;;;;;5053484;28;20379;-65
2022/01/17 00:19:43;;;;;;;315.63;139.10;;;2.30;99.90;;;;;;5053442;28;20017;-60
2022/01/17 00:22:11;;;;;;;304.67;139.82;;;2.30;99.90;;;;;;5053452;28;20040;-58
2022/01/17 00:24:37;;;;;;;306.10;132.70;;;2.40;99.90;;;;;;5053261;28;20049;-62
2022/01/17 00:27:03;;;;;;;263.25;126.18;;;2.40;99.90;;;;;;5053439;28;20112;-55
2022/01/17 00:29:29;;;;;;;251.20;117.57;;;2.40;99.90;;;;;;5053462;28;20048;-68
2022/01/17 00:31:56;;;;;;;273.88;123.78;;;2.40;99.90;;;;;;5053410;28;20051;-55
2022/01/17 00:34:22;;;;;;;244.98;112.68;;;2.50;99.90;;;;;;5053462;28;20025;-65
2022/01/17 00:36:48;;;;;;;238.23;110.20;;;2.50;99.90;;;;;;5053173;28;20052;-53
2022/01/17 00:39:14;;;;;;;222.25;102.63;;;2.50;99.90;;;;;;5053432;28;20025;-54
2022/01/17 00:41:40;;;;;;;245.90;108.32;;;2.60;99.90;;;;;;5053035;28;20028;-63
2022/01/17 00:44:06;;;;;;;239.30;104.22;;;2.60;99.90;;;;;;5053087;28;20096;-62
2022/01/17 00:46:32;;;;;;;215.85;100.03;;;2.60;99.90;;;;;;5053717;28;20056;-49
2022/01/17 00:48:58;;;;;;;210.63;98.47;;;2.60;99.90;;;;;;5053209;28;20032;-57
2022/01/17 00:51:24;;;;;;;247.93;112.00;;;2.70;99.90;;;;;;5053097;28;20067;-57
2022/01/17 00:53:50;;;;;;;230.00;102.88;;;2.70;99.90;;;;;;5056038;28;20040;-53
2022/01/17 00:56:18;;;;;;;204.75;96.35;;;2.70;99.90;;;;;;5056602;28;20021;-58
2022/01/17 00:58:44;;;;;;;192.32;91.68;;;2.70;99.90;;;;;;5056988;28;20364;-62
2022/01/17 01:01:10;;;;;;;223.75;101.05;;;2.70;99.90;;;;;;5056593;28;20051;-62
2022/01/17 01:03:36;;;;;;;201.10;95.15;;;2.80;99.90;;;;;;5056703;28;20021;-56
2022/01/17 01:06:02;;;;;;;243.80;115.80;;;2.80;99.90;;;;;;5056753;28;20100;-54
2022/01/17 01:08:28;;;;;;;231.07;113.70;;;2.80;99.90;;;;;;5056540;28;20032;-46
2022/01/17 01:10:54;;;;;;;209.02;98.85;;;2.60;99.90;;;;;;5056367;28;20025;-60
2022/01/17 01:13:22;;;;;;;196.13;92.45;;;2.60;99.90;;;;;;5056522;28;20540;-49
2022/01/17 01:29:45;;;;;;;212.98;104.40;;;2.40;99.90;;;;;;5050293;28;20112;-47
2022/01/17 01:32:12;;;;;;;197.38;93.63;;;2.40;99.90;;;;;;5056523;28;20033;-59
2022/01/17 01:34:46;;;;;;;212.65;100.80;;;2.30;99.90;;;;;;5056370;28;20108;-62
2022/01/17 01:37:12;;;;;;;209.20;96.38;;;2.30;99.90;;;;;;5056132;28;20036;-60
2022/01/17 01:39:38;;;;;;;263.98;119.57;;;2.30;99.90;;;;;;5055872;28;20037;-61
2022/01/17 01:42:11;;;;;;;274.88;127.93;;;2.20;99.90;;;;;;5055838;28;20025;-58
2022/01/17 01:44:37;;;;;;;237.18;112.70;;;2.00;99.90;;;;;;5055976;28;20048;-55
2022/01/17 01:47:03;;;;;;;237.55;112.78;;;1.90;99.90;;;;;;5055847;28;20036;-57
2022/01/17 01:49:29;;;;;;;308.13;138.45;;;1.90;99.90;;;;;;5055868;28;20100;-63
2022/01/17 01:51:55;;;;;;;479.17;235.73;;;1.90;99.90;;;;;;5055886;28;20159;-62
2022/01/17 01:54:21;;;;;;;367.95;162.70;;;1.80;99.90;;;;;;5055482;28;20045;-59
2022/01/17 01:56:49;;;;;;;357.90;163.50;;;1.70;99.90;;;;;;5055928;28;20364;-57
2022/01/17 01:59:16;;;;;;;311.42;148.48;;;1.80;99.90;;;;;;5055922;28;20143;-59
2022/01/17 02:01:42;;;;;;;323.30;144.60;;;1.90;99.90;;;;;;5055584;28;20091;-52
2022/01/17 02:04:08;;;;;;;274.33;129.98;;;2.00;99.90;;;;;;5054709;28;20471;-54
2022/01/17 02:06:34;;;;;;;258.52;124.70;;;2.00;99.90;;;;;;5055497;28;20021;-57
2022/01/17 02:09:02;;;;;;;247.30;115.28;;;2.00;99.90;;;;;;5055258;28;20021;-58
2022/01/17 02:11:28;;;;;;;277.33;131.25;;;2.10;99.90;;;;;;5055320;28;20082;-51
2022/01/17 02:13:54;;;;;;;298.80;137.38;;;2.10;99.90;;;;;;5055396;28;20025;-57
2022/01/17 02:16:23;;;;;;;303.13;140.30;;;2.10;99.90;;;;;;5055223;28;20504;-56
2022/01/17 02:18:50;;;;;;;226.98;105.07;;;1.90;99.90;;;;;;5055036;28;20041;-47
2022/01/17 02:23:48;;;;;;;210.13;96.22;;;1.90;99.90;;;;;;5054863;28;20048;-64
2022/01/17 02:26:16;;;;;;;196.70;95.78;;;1.90;99.90;;;;;;5055314;28;20016;-64
2022/01/17 02:28:48;;;;;;;246.00;114.57;;;1.90;99.90;;;;;;5055416;28;20029;-60
2022/01/17 02:31:13;;;;;;;255.07;123.35;;;1.90;99.90;;;;;;5055469;28;20025;-64
2022/01/17 02:33:39;;;;;;;245.38;112.88;;;1.80;99.90;;;;;;5055119;28;20478;-50
2022/01/17 02:36:06;;;;;;;224.30;107.53;;;1.70;99.90;;;;;;5054885;28;20059;-55
2022/01/17 02:38:31;;;;;;;211.85;101.13;;;1.60;99.90;;;;;;5054676;28;20552;-60
2022/01/17 02:40:58;;;;;;;179.32;88.75;;;1.60;99.90;;;;;;5054782;28;20052;-63
2022/01/17 02:43:26;;;;;;;216.73;101.93;;;1.60;99.90;;;;;;5054786;28;20025;-45
2022/01/17 02:48:23;;;;;;;212.05;95.72;;;1.50;99.90;;;;;;5054688;28;20029;-53
2022/01/17 02:50:49;;;;;;;183.13;86.20;;;1.60;99.90;;;;;;5054810;28;20043;-62
2022/01/17 02:53:15;;;;;;;236.02;105.50;;;1.60;99.90;;;;;;5054704;28;20025;-51
2022/01/17 02:55:49;;;;;;;188.05;94.22;;;1.60;99.90;;;;;;5054436;28;20013;-55
2022/01/17 02:58:15;;;;;;;;;;;1.60;99.90;;;;;;5055193;28;20447;-61
2022/01/17 03:00:41;;;;;;;211.93;94.43;;;1.60;99.90;;;;;;5054447;28;20425;-53
2022/01/17 03:03:20;;;;;;;191.05;92.95;;;1.60;99.90;;;;;;5054391;28;20017;-60
2022/01/17 03:05:48;;;;;;;231.00;105.05;;;1.50;99.90;;;;;;5054523;28;20115;-66
2022/01/17 03:08:15;;;;;;;255.00;116.78;;;1.50;99.90;;;;;;5054641;28;20033;-63
2022/01/17 03:10:43;;;;;;;249.90;117.22;;;1.50;99.90;;;;;;5054463;28;20025;-51
2022/01/17 03:13:24;;;;;;;204.63;94.22;;;1.50;99.90;;;;;;5054356;28;20450;-44
2022/01/17 03:15:56;;;;;;;218.35;97.68;;;1.40;99.90;;;;;;5054047;28;20025;-52
2022/01/17 03:18:27;;;;;;;270.52;125.15;;;1.40;99.90;;;;;;5054002;28;20112;-59
2022/01/17 03:20:53;;;;;;;238.35;112.75;;;1.40;99.90;;;;;;5054227;28;20027;-49
2022/01/17 03:23:19;;;;;;;258.95;122.82;;;1.40;99.90;;;;;;5054032;28;20485;-55
2022/01/17 03:25:45;;;;;;;263.40;122.60;;;1.40;99.90;;;;;;5053996;28;20475;-58
2022/01/17 03:28:11;;;;;;;238.30;108.65;;;1.50;99.90;;;;;;5054029;28;20024;-57
2022/01/17 03:30:38;;;;;;;248.15;112.75;;;1.50;99.90;;;;;;5054115;28;20025;-67
2022/01/17 03:33:08;;;;;;;261.60;116.07;;;1.50;99.90;;;;;;5054082;28;20040;-50
2022/01/17 03:35:36;;;;;;;222.50;104.60;;;1.50;99.90;;;;;;5054230;28;20025;-59
2022/01/17 03:38:02;;;;;;;232.68;107.30;;;1.50;99.90;;;;;;5053654;28;20082;-51
2022/01/17 03:40:28;;;;;;;286.48;133.60;;;1.50;99.90;;;;;;5053649;28;20017;-52
2022/01/17 03:42:54;;;;;;;294.75;132.07;;;1.50;99.90;;;;;;5053770;28;20036;-53
2022/01/17 03:45:19;;;;;;;204.63;98.22;;;1.50;99.90;;;;;;5053950;28;20104;-59
2022/01/17 03:47:50;;;;;;;193.93;92.18;;;1.60;99.90;;;;;;5053831;28;20585;-62
2022/01/17 03:50:18;;;;;;;177.85;84.22;;;1.60;99.90;;;;;;5053983;28;20071;-49
2022/01/17 03:52:44;;;;;;;178.27;84.40;;;1.70;99.90;;;;;;5053891;28;20027;-52
2022/01/17 03:55:13;;;;;;;172.00;82.63;;;1.70;99.90;;;;;;5054070;28;20446;-57
2022/01/17 03:57:39;;;;;;;211.82;101.18;;;1.80;99.90;;;;;;5053622;28;20025;-46
2022/01/17 04:00:08;;;;;;;242.60;116.35;;;1.90;99.90;;;;;;5053691;28;20028;-59
2022/01/17 04:02:34;;;;;;;228.18;109.25;;;1.70;99.90;;;;;;5053737;28;20487;-58
2022/01/17 04:05:00;;;;;;;251.73;118.30;;;1.60;99.90;;;;;;5053512;28;20025;-57
2022/01/17 04:07:25;;;;;;;216.90;107.13;;;1.50;99.90;;;;;;5053566;28;20032;-55
2022/01/17 04:09:51;;;;;;;225.35;106.85;;;1.50;99.90;;;;;;5053736;28;20551;-57
2022/01/17 04:12:17;;;;;;;225.00;105.88;;;1.60;99.90;;;;;;5053357;28;20502;-60
2022/01/17 04:14:43;;;;;;;181.73;87.13;;;1.60;99.90;;;;;;5053777;28;20025;-57
2022/01/17 04:17:08;;;;;;;196.13;93.85;;;1.60;99.90;;;;;;5053816;28;20426;-59
2022/01/17 04:19:34;;;;;;;181.85;88.25;;;1.70;99.90;;;;;;5053270;28;20025;-57
2022/01/17 04:22:00;;;;;;;217.73;102.43;;;1.80;99.90;;;;;;5053242;28;20033;-54
2022/01/17 04:24:26;;;;;;;181.70;88.95;;;1.90;99.90;;;;;;5053513;28;20055;-50
2022/01/17 04:26:52;;;;;;;158.98;80.30;;;1.90;99.90;;;;;;5053319;28;20025;-69
2022/01/17 04:29:20;;;;;;;183.75;87.60;;;1.90;99.90;;;;;;5057404;28;20028;-58
2022/01/17 04:31:46;;;;;;;253.98;112.28;;;1.90;99.90;;;;;;5057391;28;20025;-57
2022/01/17 04:34:12;;;;;;;253.02;122.25;;;2.00;99.90;;;;;;5057076;28;20167;-61
2022/01/17 04:36:38;;;;;;;225.18;107.47;;;2.00;99.90;;;;;;5057046;28;20057;-55
2022/01/17 04:39:04;;;;;;;223.77;109.03;;;1.90;99.90;;;;;;5057150;28;20108;-55
2022/01/17 04:41:36;;;;;;;238.35;117.68;;;1.90;99.90;;;;;;5057159;28;20122;-57
2022/01/17 04:45:07;;;;;;;288.77;130.75;;;1.90;99.90;;;;;;5057274;28;20021;-47
2022/01/17 04:46:47;;;;;;;259.05;119.53;;;1.90;99.90;;;;;;5056928;28;20032;-61
2022/01/17 04:49:13;;;;;;;250.57;119.18;;;1.90;99.90;;;;;;5057020;28;20020;-61
2022/01/17 04:51:39;;;;;;;279.15;130.60;;;1.90;99.90;;;;;;5056859;28;20025;-51
2022/01/17 04:56:57;;;;;;;224.63;107.28;;;2.00;99.90;;;;;;5056255;28;20083;-59
2022/01/17 04:59:22;;;;;;;235.95;113.75;;;2.10;99.90;;;;;;5056946;28;20025;-60
2022/01/17 05:01:48;;;;;;;259.92;124.55;;;2.10;99.90;;;;;;5056505;28;20487;-56
2022/01/17 05:04:14;;;;;;;268.83;131.88;;;2.10;99.90;;;;;;5056670;28;20027;-60
2022/01/17 05:06:39;;;;;;;218.02;107.78;;;2.00;99.90;;;;;;5056794;28;20027;-67
2022/01/17 05:09:05;;;;;;;206.38;100.28;;;1.80;99.90;;;;;;5056627;28;20025;-58
2022/01/17 05:11:32;;;;;;;207.95;103.75;;;1.90;99.90;;;;;;5056798;28;20032;-62
2022/01/17 05:13:58;;;;;;;173.30;90.35;;;1.90;99.90;;;;;;5056555;28;20420;-51
2022/01/17 05:16:32;;;;;;;158.32;80.78;;;1.90;99.90;;;;;;5056628;28;20402;-63
2022/01/17 05:21:41;;;;;;;168.68;82.45;;;2.10;99.90;;;;;;5056530;28;20155;-65
2022/01/17 05:24:07;;;;;;;157.50;79.32;;;2.20;99.90;;;;;;5056295;28;20083;-56
2022/01/17 05:26:33;;;;;;;126.50;66.78;;;2.20;99.90;;;;;;5055820;28;20028;-57
2022/01/17 05:28:58;;;;;;;139.45;68.40;;;2.20;99.90;;;;;;5056270;28;20103;-58
2022/01/17 05:31:24;;;;;;;146.35;71.03;;;2.30;99.90;;;;;;5056083;28;20029;-54
2022/01/17 05:33:50;;;;;;;121.30;59.15;;;2.20;99.90;;;;;;5056492;28;20110;-61
2022/01/17 05:36:16;;;;;;;114.47;60.55;;;2.20;99.90;;;;;;5056049;28;20471;-66
2022/01/17 05:38:41;;;;;;;143.60;73.90;;;2.20;99.90;;;;;;5055090;28;20029;-50
2022/01/17 05:41:07;;;;;;;124.90;64.28;;;2.20;99.90;;;;;;5055626;28;20027;-54
2022/01/17 05:43:33;;;;;;;196.13;95.18;;;2.10;99.90;;;;;;5055867;28;20017;-56
2022/01/17 05:45:58;;;;;;;240.77;113.18;;;2.10;99.90;;;;;;5056055;28;20116;-58
2022/01/17 05:48:25;;;;;;;189.98;96.25;;;1.90;99.90;;;;;;5056117;28;20471;-57
2022/01/17 05:50:50;;;;;;;174.27;88.30;;;1.70;99.90;;;;;;5055750;28;20044;-55
2022/01/17 05:53:16;;;;;;;171.43;81.85;;;1.70;99.90;;;;;;5055799;28;20063;-63
2022/01/17 05:55:42;;;;;;;148.40;76.13;;;1.80;99.90;;;;;;5055556;28;20017;-58
2022/01/17 05:58:07;;;;;;;248.95;113.05;;;1.90;99.90;;;;;;5055179;28;20029;-56
2022/01/17 06:00:33;;;;;;;291.35;120.10;;;1.90;99.90;;;;;;5055076;28;20578;-56
2022/01/17 06:02:59;;;;;;;308.65;133.13;;;1.90;99.90;;;;;;5055532;28;20056;-60
2022/01/17 06:05:25;;;;;;;294.67;134.50;;;1.90;99.90;;;;;;5055799;28;20028;-57
2022/01/17 06:07:51;;;;;;;229.63;109.13;;;1.80;99.90;;;;;;5054863;28;20024;-60
2022/01/17 06:10:16;;;;;;;292.50;137.32;;;1.70;99.90;;;;;;5054418;28;20479;-61
2022/01/17 06:12:42;;;;;;;230.63;107.57;;;1.80;99.90;;;;;;5054950;28;20025;-54
2022/01/17 06:15:08;;;;;;;211.77;99.78;;;1.70;99.90;;;;;;5043851;28;20033;-63
2022/01/17 06:17:34;;;;;;;196.73;92.00;;;1.80;99.90;;;;;;5034977;28;20614;-55
2022/01/17 06:20:00;;;;;;;183.13;86.28;;;1.80;99.90;;;;;;5046415;28;20109;-55
2022/01/17 06:22:26;;;;;;;171.10;80.80;;;1.80;99.90;;;;;;5053110;28;20048;-55
2022/01/17 06:24:52;;;;;;;166.75;79.85;;;1.80;99.90;;;;;;5053547;28;20138;-48
2022/01/17 06:27:19;;;;;;;193.65;91.72;;;1.90;99.90;;;;;;5054778;28;20447;-43
2022/01/17 06:29:44;;;;;;;268.75;130.05;;;1.90;99.90;;;;;;5054768;28;20108;-60
2022/01/17 06:32:10;;;;;;;250.23;120.63;;;1.90;99.90;;;;;;5054865;28;20107;-61
2022/01/17 06:34:36;;;;;;;300.77;149.95;;;1.80;99.90;;;;;;5053390;28;20068;-64
2022/01/17 06:37:02;;;;;;;315.80;149.95;;;1.80;99.90;;;;;;5054875;28;20036;-51
2022/01/17 06:39:28;;;;;;;239.10;121.18;;;1.60;99.90;;;;;;5053852;28;20483;-52
2022/01/17 06:41:53;;;;;;;222.48;113.38;;;1.60;99.90;;;;;;5052667;28;20021;-46
2022/01/17 06:44:19;;;;;;;205.65;105.88;;;1.70;99.90;;;;;;5052463;28;20029;-49
2022/01/17 06:46:45;;;;;;;195.13;100.32;;;1.90;99.90;;;;;;5053200;28;20088;-59
2022/01/17 06:49:11;;;;;;;232.52;121.43;;;2.00;99.90;;;;;;5051540;28;20078;-61
2022/01/17 06:51:36;;;;;;;217.55;115.25;;;2.10;99.90;;;;;;5052175;28;20035;-55
2022/01/17 06:54:02;;;;;;;200.00;105.07;;;2.10;99.90;;;;;;5052474;28;20021;-59
2022/01/17 06:56:28;;;;;;;181.38;95.03;;;2.10;99.90;;;;;;5052469;28;20020;-65
2022/01/17 06:58:54;;;;;;;170.00;90.32;;;2.10;99.90;;;;;;5053522;28;20033;-53
2022/01/17 07:01:21;;;;;;;166.70;87.25;;;2.20;99.90;;;;;;5054670;28;20052;-73
2022/01/17 07:03:48;;;;;;;146.10;75.65;;;2.30;99.90;;;;;;5053191;28;20057;-69
2022/01/17 07:06:14;;;;;;;147.38;78.10;;;2.40;99.90;;;;;;5052886;28;20403;-60
2022/01/17 07:08:39;;;;;;;133.23;68.65;;;2.40;99.90;;;;;;5052349;28;20336;-52
2022/01/17 07:11:05;;;;;;;161.38;80.93;;;2.50;99.90;;;;;;5052070;28;20072;-58
2022/01/17 07:13:31;;;;;;;184.98;91.75;;;2.70;99.90;;;;;;5051721;28;20017;-60
2022/01/17 07:15:57;;;;;;;128.23;67.63;;;2.70;99.90;;;;;;5051913;28;20490;-52
2022/01/17 07:18:23;;;;;;;131.52;69.60;;;2.70;99.90;;;;;;5052282;28;20120;-67
2022/01/17 07:20:48;;;;;;;144.95;72.38;;;2.70;99.90;;;;;;5051890;28;20036;-55
2022/01/17 07:23:15;;;;;;;166.98;79.45;;;2.80;99.90;;;;;;5051932;28;20044;-73
2022/01/17 07:25:41;;;;;;;184.32;90.88;;;2.80;99.90;;;;;;5053461;28;20040;-70
2022/01/17 07:28:09;;;;;;;182.40;88.63;;;2.90;99.90;;;;;;5052207;28;20029;-54
2022/01/17 07:30:36;;;;;;;159.57;81.35;;;3.00;99.90;;;;;;5052853;28;20734;-56
2022/01/17 07:33:05;;;;;;;177.80;88.00;;;3.10;99.90;;;;;;5052281;28;20048;-52
2022/01/17 07:35:31;;;;;;;170.98;86.50;;;3.20;99.90;;;;;;5052072;28;20087;-61
2022/01/17 07:37:57;;;;;;;172.45;86.60;;;3.20;99.90;;;;;;5052155;28;20431;-64
2022/01/17 07:40:23;;;;;;;190.50;95.22;;;3.20;99.90;;;;;;5052145;28;20051;-56
2022/01/17 07:42:49;;;;;;;185.60;94.18;;;3.20;99.90;;;;;;5051857;28;20063;-55
2022/01/17 07:45:17;;;;;;;199.85;99.28;;;3.20;99.90;;;;;;5051225;28;20028;-57
2022/01/17 07:50:22;;;;;;;175.50;85.40;;;3.70;99.90;;;;;;5053857;28;20529;-67
2022/01/17 07:52:49;;;;;;;168.45;87.47;;;4.80;99.20;;;;;;5053622;28;20104;-60
2022/01/17 07:55:16;;;;;;;174.32;85.00;;;6.20;92.50;;;;;;5049050;28;20493;-59
2022/01/17 07:57:42;;;;;;;158.15;84.00;;;7.60;78.90;;;;;;5032247;28;20060;-51
2022/01/17 08:00:11;;;;;;;170.48;85.15;;;8.60;70.00;;;;;;5050191;28;20537;-63
2022/01/17 08:02:37;;;;;;;286.85;133.23;;;9.00;64.80;;;;;;5035170;28;20032;-53
2022/01/17 08:05:03;;;;;;;270.48;134.40;;;9.60;59.70;;;;;;5031500;28;20487;-60
2022/01/17 08:07:29;;;;;;;461.90;241.00;;;10.20;57.60;;;;;;5033977;28;20514;-59
2022/01/17 08:09:55;;;;;;;494.10;271.85;;;10.20;57.10;;;;;;5051294;28;20022;-63
2022/01/17 08:12:21;;;;;;;500.38;277.67;;;10.10;57.90;;;;;;5047729;28;20116;-56
2022/01/17 08:14:47;;;;;;;437.63;245.85;;;10.30;58.00;;;;;;5031728;28;20045;-57
2022/01/17 08:17:13;;;;;;;467.33;263.05;;;10.70;56.70;;;;;;5043144;28;20040;-50
2022/01/17 08:19:39;;;;;;;391.30;219.48;;;11.70;54.50;;;;;;5044264;28;20025;-53
2022/01/17 08:22:06;;;;;;;365.38;203.20;;;12.10;52.50;;;;;;5041758;28;20099;-51
2022/01/17 08:24:33;;;;;;;351.90;196.32;;;11.90;52.00;;;;;;5034915;28;20055;-58
2022/01/17 08:27:00;;;;;;;357.25;196.23;;;11.50;51.80;;;;;;5032767;28;20034;-58
2022/01/17 08:29:27;;;;;;;328.40;180.02;;;11.40;53.20;;;;;;5033913;28;20092;-54
2022/01/17 08:31:53;;;;;;;313.92;175.77;;;10.60;52.80;;;;;;5044025;28;20096;-54
2022/01/17 08:34:19;;;;;;;324.90;182.57;;;9.60;54.30;;;;;;5037887;28;20025;-56
2022/01/17 08:36:46;;;;;;;302.30;167.07;;;9.10;56.30;;;;;;5037872;28;20080;-53
2022/01/17 08:39:12;;;;;;;295.92;162.50;;;8.70;57.70;;;;;;5037526;28;20063;-57
2022/01/17 08:41:42;;;;;;;415.13;231.70;;;9.40;59.10;;;;;;5037624;28;20036;-60
2022/01/17 08:44:12;;;;;;;462.33;270.13;;;9.00;58.00;;;;;;5042439;28;20029;-57
2022/01/17 08:46:38;;;;;;;509.88;302.60;;;8.50;61.10;;;;;;5037796;28;20052;-51
2022/01/17 08:49:05;;;;;;;447.92;265.23;;;7.90;63.10;;;;;;5038524;28;20075;-64
2022/01/17 08:51:31;;;;;;;426.95;252.18;;;7.70;67.00;;;;;;5030944;28;20029;-53
2022/01/17 08:53:57;;;;;;;395.27;226.43;;;7.60;66.70;;;;;;5037466;28;20026;-64
2022/01/17 08:56:23;;;;;;;428.88;254.00;;;7.50;70.60;;;;;;5041290;28;20072;-55
2022/01/17 08:58:48;;;;;;;411.13;230.65;;;7.50;68.90;;;;;;5029999;28;20392;-58
2022/01/17 09:01:14;;;;;;;396.67;227.68;;;7.70;69.90;;;;;;5029892;28;20032;-54
2022/01/17 09:03:41;;;;;;;455.00;269.67;;;7.70;69.90;;;;;;5032591;28;20537;-50
2022/01/17 09:06:07;;;;;;;422.27;256.15;;;7.60;70.80;;;;;;5032539;28;20032;-65
2022/01/17 09:08:33;;;;;;;459.63;279.30;;;7.50;74.50;;;;;;5031074;28;20097;-56
2022/01/17 09:10:59;;;;;;;431.10;261.05;;;7.90;72.50;;;;;;5029606;28;20420;-57
2022/01/17 09:13:25;;;;;;;483.35;295.92;;;8.60;69.30;;;;;;5030283;28;20025;-62
2022/01/17 09:15:52;;;;;;;477.83;281.70;;;9.00;64.80;;;;;;5033676;28;20026;-50
2022/01/17 09:18:20;;;;;;;434.65;261.75;;;9.00;64.20;;;;;;5033170;28;20496;-50
2022/01/17 09:20:47;;;;;;;493.27;297.50;;;9.10;64.50;;;;;;5034165;28;20079;-55
2022/01/17 09:23:13;;;;;;;417.15;252.75;;;8.90;64.60;;;;;;5044242;28;20032;-53
2022/01/17 09:25:40;;;;;;;410.80;244.32;;;8.80;64.20;;;;;;5046376;28;20041;-61
2022/01/17 09:28:07;;;;;;;428.25;255.88;;;8.90;65.80;;;;;;5041540;28;20033;-54
2022/01/17 09:30:32;;;;;;;461.15;281.08;;;9.00;65.90;;;;;;5053775;28;20029;-63
2022/01/17 09:32:58;;;;;;;480.65;286.45;;;9.30;65.50;;;;;;5039083;28;20040;-59
2022/01/17 09:35:24;;;;;;;611.13;387.08;;;9.80;65.40;;;;;;5043429;28;20086;-49
2022/01/17 09:37:51;;;;;;;529.63;350.17;;;10.00;61.30;;;;;;5048112;28;20033;-56
2022/01/17 09:40:19;;;;;;;531.20;346.55;;;10.20;61.50;;;;;;5047070;28;20387;-52
2022/01/17 09:42:46;;;;;;;610.50;397.38;;;10.50;58.90;;;;;;5039389;28;20037;-54
2022/01/17 09:45:14;;;;;;;529.33;355.75;;;10.50;59.40;;;;;;5036125;28;20397;-61
2022/01/17 09:47:41;;;;;;;497.60;330.30;;;10.60;59.50;;;;;;5035095;28;20499;-56
2022/01/17 09:50:12;;;;;;;459.75;300.15;;;10.70;58.90;;;;;;5034383;28;20025;-55
2022/01/17 09:52:47;;;;;;;418.50;270.08;;;10.90;58.80;;;;;;5034496;28;20025;-58
2022/01/17 09:55:22;;;;;;;434.83;266.15;;;11.10;57.70;;;;;;5052417;28;20024;-67
2022/01/17 09:58:03;;;;;;;413.13;253.38;;;11.40;57.20;;;;;;5049158;28;20068;-55
2022/01/17 10:00:31;;;;;;;387.70;242.82;;;11.50;55.50;;;;;;5055487;28;20078;-65
2022/01/17 10:02:59;;;;;;;373.65;232.38;;;11.60;56.40;;;;;;5055502;28;20024;-65
2022/01/17 10:05:27;;;;;;;358.13;223.85;;;11.80;55.20;;;;;;5055793;28;20024;-61
2022/01/17 10:07:56;;;;;;;344.33;210.38;;;12.00;55.00;;;;;;5052682;28;20074;-58
2022/01/17 10:10:45;;;;;;;336.90;208.45;;;12.10;54.50;;;;;;5042837;28;20067;-69
2022/01/17 10:13:12;;;;;;;331.73;202.32;;;12.30;53.30;;;;;;5038081;28;20048;-59
2022/01/17 10:15:45;;;;;;;298.90;182.68;;;12.40;53.10;;;;;;5040657;28;20028;-57
2022/01/17 10:18:28;;;;;;;284.05;180.10;;;12.40;53.10;;;;;;5040397;28;20037;-54
2022/01/17 10:21:02;;;;;;;279.58;174.38;;;12.50;52.90;;;;;;5043136;28;20083;-58
2022/01/17 10:23:43;;;;;;;260.65;163.60;;;12.80;52.70;;;;;;5042671;28;20039;-65
2022/01/17 10:26:53;;;;;;;263.05;158.63;;;13.10;52.40;;;;;;5039155;28;20108;-60
2022/01/17 10:36:48;;;;;;;177.45;117.30;;;13.50;49.70;;;;;;5043078;28;20032;-57
2022/01/17 10:39:14;;;;;;;229.25;148.25;;;13.50;49.30;;;;;;5039463;28;20057;-56
2022/01/17 10:41:40;;;;;;;205.73;130.68;;;13.60;50.30;;;;;;5043698;28;20022;-58
2022/01/17 10:44:06;;;;;;;197.27;124.05;;;13.80;50.00;;;;;;5042246;28;20051;-47
2022/01/17 10:46:32;;;;;;;204.23;130.20;;;14.00;49.30;;;;;;5042488;28;20024;-56
2022/01/17 10:48:59;;;;;;;189.88;125.13;;;14.10;50.00;;;;;;5043088;28;20091;-55
2022/01/17 10:51:33;;;;;;;196.38;125.70;;;14.20;49.60;;;;;;5041064;28;20117;-50
2022/01/17 10:54:14;;;;;;;198.90;120.07;;;14.50;48.50;;;;;;5040534;28;20037;-57
2022/01/17 10:56:53;;;;;;;211.23;128.60;;;14.70;47.40;;;;;;5042751;28;20381;-62
2022/01/17 10:59:31;;;;;;;176.57;115.13;;;14.70;46.20;;;;;;5038560;28;20544;-54
2022/01/17 11:01:59;;;;;;;161.95;105.82;;;14.70;44.80;;;;;;5040611;28;20055;-67
2022/01/17 11:04:35;;;;;;;132.40;88.35;;;15.00;47.60;;;;;;5042674;28;20384;-53
2022/01/17 11:07:03;;;;;;;119.50;76.80;;;15.00;44.50;;;;;;5039503;28;20017;-53
2022/01/17 11:09:41;;;;;;;221.43;137.73;;;15.00;45.00;;;;;;5044884;28;20052;-67
2022/01/17 11:12:12;;;;;;;188.45;124.47;;;14.70;45.90;;;;;;5041703;28;20025;-59
2022/01/17 11:14:39;;;;;;;111.35;70.28;;;14.40;47.40;;;;;;5043280;28;20048;-59
2022/01/17 11:17:33;;;;;;;91.50;58.75;;;14.60;44.80;;;;;;5039893;28;20087;-52
2022/01/17 11:20:05;;;;;;;84.43;56.78;;;14.80;44.70;;;;;;5039515;28;20021;-50
2022/01/17 11:22:31;;;;;;;90.13;56.40;;;14.80;45.10;;;;;;5040785;28;20384;-59
2022/01/17 11:24:58;;;;;;;73.43;49.10;;;14.90;44.40;;;;;;5036041;28;20393;-60
2022/01/17 11:27:24;;;;;;;53.15;36.28;;;15.10;43.20;;;;;;5031017;28;20036;-62
2022/01/17 11:29:51;;;;;;;42.50;31.73;;;15.10;43.10;;;;;;5032334;28;20028;-53
2022/01/17 11:32:16;;;;;;;42.80;30.25;;;15.10;43.80;;;;;;5041758;28;20040;-65
2022/01/17 11:34:43;;;;;;;42.95;28.05;;;15.30;42.50;;;;;;5039762;28;20067;-53
2022/01/17 11:37:10;;;;;;;71.22;45.42;;;15.40;40.70;;;;;;5042372;28;20021;-54
2022/01/17 11:39:46;;;;;;;59.28;37.78;;;15.20;42.20;;;;;;5042683;28;20014;-59
2022/01/17 11:42:41;;;;;;;64.55;42.80;;;15.30;42.40;;;;;;5038114;28;20040;-52
2022/01/17 11:45:22;;;;;;;66.88;45.75;;;15.50;41.90;;;;;;5032145;28;20357;-57
2022/01/17 11:48:05;;;;;;;73.82;49.47;;;15.80;40.80;;;;;;5032860;28;20040;-63
2022/01/17 11:50:43;;;;;;;70.72;50.42;;;16.20;40.80;;;;;;5051863;28;20060;-62
2022/01/17 11:53:11;;;;;;;96.85;61.47;;;16.40;39.80;;;;;;5052996;28;20040;-63
2022/01/17 11:55:41;;;;;;;86.45;56.38;;;16.50;39.80;;;;;;5053611;28;20108;-59
2022/01/17 11:58:19;;;;;;;84.72;51.47;;;16.50;39.00;;;;;;5053446;28;20425;-58
2022/01/17 12:00:46;;;;;;;123.65;73.65;;;16.40;39.80;;;;;;5053588;28;20044;-61
2022/01/17 12:03:21;;;;;;;68.63;45.67;;;16.50;40.90;;;;;;5051659;28;20025;-54
2022/01/17 12:05:48;;;;;;;65.65;46.47;;;16.70;39.10;;;;;;5052997;28;20395;-52
2022/01/17 12:08:25;;;;;;;59.10;38.80;;;16.60;40.00;;;;;;5051454;28;20025;-66
2022/01/17 12:11:01;;;;;;;50.90;36.35;;;16.60;38.60;;;;;;5053325;28;20426;-59
2022/01/17 12:13:41;;;;;;;47.33;33.92;;;16.40;38.50;;;;;;5052600;28;20017;-57
2022/01/17 12:16:18;;;;;;;41.55;32.65;;;16.50;39.00;;;;;;5050606;28;20033;-59
2022/01/17 12:18:54;;;;;;;43.30;32.47;;;16.50;40.30;;;;;;5050896;28;20544;-52
2022/01/17 12:21:23;;;;;;;40.60;27.85;;;16.50;38.60;;;;;;5050031;28;20075;-54
2022/01/17 12:23:49;;;;;;;32.50;25.50;;;16.60;39.20;;;;;;5051037;28;20037;-60
2022/01/17 12:26:27;;;;;;;34.20;25.73;;;16.60;38.00;;;;;;5048364;28;20083;-49
2022/01/17 12:28:55;;;;;;;35.28;24.50;;;16.80;38.20;;;;;;5039432;28;20051;-51
2022/01/17 12:31:44;;;;;;;52.45;34.05;;;17.10;37.00;;;;;;5031660;28;20025;-51
2022/01/17 12:34:18;;;;;;;69.25;47.60;;;17.10;39.90;;;;;;5030729;28;20025;-59
2022/01/17 12:36:46;;;;;;;133.48;98.53;;;17.10;38.50;;;;;;5030872;28;20026;-58
2022/01/17 12:39:19;;;;;;;275.17;178.02;;;16.60;40.00;;;;;;5032332;28;20037;-59
2022/01/17 12:41:48;;;;;;;347.50;231.18;;;16.10;40.00;;;;;;5032187;28;20545;-57
2022/01/17 12:44:18;;;;;;;276.00;197.43;;;15.90;39.70;;;;;;5031377;28;20087;-51
2022/01/17 12:46:50;;;;;;;228.80;158.57;;;15.10;41.90;;;;;;5031195;28;20021;-50
2022/01/17 12:49:17;;;;;;;190.63;143.50;;;14.30;44.90;;;;;;5039855;28;20029;-56
2022/01/17 12:51:45;;;;;;;152.27;100.43;;;14.30;44.40;;;;;;5047726;28;20021;-64
2022/01/17 12:54:16;;;;;;;156.32;105.22;;;14.50;44.30;;;;;;5036173;28;20032;-61
2022/01/17 12:56:48;;;;;;;156.65;105.63;;;13.90;44.80;;;;;;5050582;28;20340;-51
2022/01/17 12:59:18;;;;;;;134.70;91.50;;;13.40;47.00;;;;;;5053341;28;20226;-50
2022/01/17 13:01:49;;;;;;;115.07;78.82;;;13.20;46.50;;;;;;5054654;28;20079;-49